sensor_id;sensor_type;location;lat;lon;timestamp;P1;durP1;ratioP1;P2;durP2;ratioP2
21591;SDS011;10958;50.892;3.992;2023-02-12T00:01:17;29.75;;;18.75;;
21591;SDS011;10958;50.892;3.992;2023-02-12T00:03:43;26.65;;;17.95;;
21591;SDS011;10958;50.892;3.992;2023-02-12T00:06:09;28.52;;;16.38;;
21591;SDS011;10958;50.892;3.992;2023-02-12T00:08:38;22.73;;;15.23;;
21591;SDS011;10958;50.892;3.992;2023-02-12T00:11:19;27.38;;;15.77;;
21591;SDS011;10958;50.892;3.992;2023-02-12T00:13:49;20.25;;;14.48;;
21591;SDS011;10958;50.892;3.992;2023-02-12T00:16:16;18.73;;;13.48;;
21591;SDS011;10958;50.892;3.992;2023-02-12T00:18:44;25.70;;;15.30;;
21591;SDS011;10958;50.892;3.992;2023-02-12T00:21:11;23.45;;;14.15;;
21591;SDS011;10958;50.892;3.992;2023-02-12T00:23:41;22.42;;;14.25;;
21591;SDS011;10958;50.892;3.992;2023-02-12T00:26:11;22.50;;;14.73;;
21591;SDS011;10958;50.892;3.992;2023-02-12T00:28:41;22.50;;;13.90;;
21591;SDS011;10958;50.892;3.992;2023-02-12T00:31:11;21.15;;;13.38;;
21591;SDS011;10958;50.892;3.992;2023-02-12T00:33:48;20.25;;;13.27;;
21591;SDS011;10958;50.892;3.992;2023-02-12T00:36:16;19.10;;;12.93;;
21591;SDS011;10958;50.892;3.992;2023-02-12T00:38:44;18.70;;;12.90;;
21591;SDS011;10958;50.892;3.992;2023-02-12T00:41:10;17.95;;;12.60;;
21591;SDS011;10958;50.892;3.992;2023-02-12T00:43:37;19.30;;;13.52;;
21591;SDS011;10958;50.892;3.992;2023-02-12T00:46:03;22.00;;;13.93;;
21591;SDS011;10958;50.892;3.992;2023-02-12T00:48:30;25.60;;;14.52;;
21591;SDS011;10958;50.892;3.992;2023-02-12T00:50:57;20.42;;;14.13;;
21591;SDS011;10958;50.892;3.992;2023-02-12T00:53:23;23.95;;;14.95;;
21591;SDS011;10958;50.892;3.992;2023-02-12T00:55:49;21.65;;;14.30;;
21591;SDS011;10958;50.892;3.992;2023-02-12T00:58:14;20.73;;;13.88;;
21591;SDS011;10958;50.892;3.992;2023-02-12T01:00:41;19.23;;;14.48;;
21591;SDS011;10958;50.892;3.992;2023-02-12T01:03:12;20.90;;;14.20;;
21591;SDS011;10958;50.892;3.992;2023-02-12T01:05:38;22.08;;;15.18;;
21591;SDS011;10958;50.892;3.992;2023-02-12T01:08:04;26.50;;;15.15;;
21591;SDS011;10958;50.892;3.992;2023-02-12T01:10:29;22.50;;;14.85;;
21591;SDS011;10958;50.892;3.992;2023-02-12T01:12:58;24.50;;;14.57;;
21591;SDS011;10958;50.892;3.992;2023-02-12T01:15:26;21.65;;;15.25;;
21591;SDS011;10958;50.892;3.992;2023-02-12T01:17:52;24.13;;;15.77;;
21591;SDS011;10958;50.892;3.992;2023-02-12T01:20:19;28.85;;;16.33;;
21591;SDS011;10958;50.892;3.992;2023-02-12T01:22:48;21.80;;;15.40;;
21591;SDS011;10958;50.892;3.992;2023-02-12T01:25:14;21.30;;;14.73;;
21591;SDS011;10958;50.892;3.992;2023-02-12T01:27:39;22.60;;;15.38;;
21591;SDS011;10958;50.892;3.992;2023-02-12T01:30:06;22.95;;;15.35;;
21591;SDS011;10958;50.892;3.992;2023-02-12T01:32:34;24.95;;;16.52;;
21591;SDS011;10958;50.892;3.992;2023-02-12T01:35:00;27.15;;;16.35;;
21591;SDS011;10958;50.892;3.992;2023-02-12T01:37:26;27.35;;;16.58;;
21591;SDS011;10958;50.892;3.992;2023-02-12T01:39:52;26.75;;;15.65;;
21591;SDS011;10958;50.892;3.992;2023-02-12T01:42:17;28.80;;;17.05;;
21591;SDS011;10958;50.892;3.992;2023-02-12T01:44:45;30.90;;;16.67;;
21591;SDS011;10958;50.892;3.992;2023-02-12T01:47:41;23.48;;;15.35;;
21591;SDS011;10958;50.892;3.992;2023-02-12T01:50:09;22.92;;;15.50;;
21591;SDS011;10958;50.892;3.992;2023-02-12T01:52:39;21.48;;;15.07;;
21591;SDS011;10958;50.892;3.992;2023-02-12T01:55:13;23.08;;;15.00;;
21591;SDS011;10958;50.892;3.992;2023-02-12T01:57:41;28.48;;;16.40;;
21591;SDS011;10958;50.892;3.992;2023-02-12T02:00:11;22.90;;;15.63;;
21591;SDS011;10958;50.892;3.992;2023-02-12T02:02:39;21.63;;;15.40;;
21591;SDS011;10958;50.892;3.992;2023-02-12T02:05:07;24.02;;;16.08;;
21591;SDS011;10958;50.892;3.992;2023-02-12T02:07:33;27.55;;;15.73;;
21591;SDS011;10958;50.892;3.992;2023-02-12T02:09:58;24.48;;;15.52;;
21591;SDS011;10958;50.892;3.992;2023-02-12T02:12:25;23.45;;;15.38;;
21591;SDS011;10958;50.892;3.992;2023-02-12T02:15:12;21.33;;;15.18;;
21591;SDS011;10958;50.892;3.992;2023-02-12T02:17:50;25.25;;;15.27;;
21591;SDS011;10958;50.892;3.992;2023-02-12T02:29:13;23.55;;;15.60;;
21591;SDS011;10958;50.892;3.992;2023-02-12T02:31:45;26.38;;;15.93;;
21591;SDS011;10958;50.892;3.992;2023-02-12T02:34:37;24.27;;;16.40;;
21591;SDS011;10958;50.892;3.992;2023-02-12T02:39:54;21.25;;;14.63;;
21591;SDS011;10958;50.892;3.992;2023-02-12T02:45:29;19.27;;;14.23;;
21591;SDS011;10958;50.892;3.992;2023-02-12T02:50:45;19.58;;;14.60;;
21591;SDS011;10958;50.892;3.992;2023-02-12T02:53:17;21.20;;;15.00;;
21591;SDS011;10958;50.892;3.992;2023-02-12T02:55:51;15.52;;;12.98;;
21591;SDS011;10958;50.892;3.992;2023-02-12T02:58:20;15.02;;;12.10;;
21591;SDS011;10958;50.892;3.992;2023-02-12T03:04:01;18.33;;;13.45;;
21591;SDS011;10958;50.892;3.992;2023-02-12T03:09:20;17.08;;;12.50;;
21591;SDS011;10958;50.892;3.992;2023-02-12T03:12:05;17.45;;;13.02;;
21591;SDS011;10958;50.892;3.992;2023-02-12T03:14:39;18.77;;;13.00;;
21591;SDS011;10958;50.892;3.992;2023-02-12T03:17:18;15.90;;;13.13;;
21591;SDS011;10958;50.892;3.992;2023-02-12T03:20:02;19.45;;;12.63;;
21591;SDS011;10958;50.892;3.992;2023-02-12T03:22:33;19.50;;;12.85;;
21591;SDS011;10958;50.892;3.992;2023-02-12T03:27:36;17.45;;;13.20;;
21591;SDS011;10958;50.892;3.992;2023-02-12T03:30:05;17.10;;;13.65;;
21591;SDS011;10958;50.892;3.992;2023-02-12T03:32:35;19.02;;;13.35;;
21591;SDS011;10958;50.892;3.992;2023-02-12T03:37:56;16.40;;;12.60;;
21591;SDS011;10958;50.892;3.992;2023-02-12T03:40:33;20.98;;;13.52;;
21591;SDS011;10958;50.892;3.992;2023-02-12T03:43:13;19.10;;;14.55;;
21591;SDS011;10958;50.892;3.992;2023-02-12T03:45:56;19.20;;;13.43;;
21591;SDS011;10958;50.892;3.992;2023-02-12T03:48:32;17.70;;;13.68;;
21591;SDS011;10958;50.892;3.992;2023-02-12T03:51:04;18.70;;;14.43;;
21591;SDS011;10958;50.892;3.992;2023-02-12T03:53:35;19.85;;;14.25;;
21591;SDS011;10958;50.892;3.992;2023-02-12T03:56:36;19.63;;;14.07;;
21591;SDS011;10958;50.892;3.992;2023-02-12T03:59:05;21.88;;;13.50;;
21591;SDS011;10958;50.892;3.992;2023-02-12T04:01:32;20.33;;;13.77;;
21591;SDS011;10958;50.892;3.992;2023-02-12T04:04:00;20.33;;;13.80;;
21591;SDS011;10958;50.892;3.992;2023-02-12T04:06:28;18.40;;;14.02;;
21591;SDS011;10958;50.892;3.992;2023-02-12T04:09:00;19.38;;;14.63;;
21591;SDS011;10958;50.892;3.992;2023-02-12T04:11:33;16.23;;;12.18;;
21591;SDS011;10958;50.892;3.992;2023-02-12T04:16:53;15.40;;;10.18;;
21591;SDS011;10958;50.892;3.992;2023-02-12T04:28:19;14.27;;;10.35;;
21591;SDS011;10958;50.892;3.992;2023-02-12T04:30:59;13.20;;;10.32;;
21591;SDS011;10958;50.892;3.992;2023-02-12T04:33:32;15.80;;;11.15;;
21591;SDS011;10958;50.892;3.992;2023-02-12T04:36:07;12.85;;;11.18;;
21591;SDS011;10958;50.892;3.992;2023-02-12T04:38:52;15.23;;;11.35;;
21591;SDS011;10958;50.892;3.992;2023-02-12T04:41:21;14.35;;;11.77;;
21591;SDS011;10958;50.892;3.992;2023-02-12T04:43:48;23.38;;;12.98;;
21591;SDS011;10958;50.892;3.992;2023-02-12T04:46:13;14.75;;;12.18;;
21591;SDS011;10958;50.892;3.992;2023-02-12T04:48:49;13.50;;;11.75;;
21591;SDS011;10958;50.892;3.992;2023-02-12T04:51:20;17.38;;;11.85;;
21591;SDS011;10958;50.892;3.992;2023-02-12T04:53:46;17.40;;;12.13;;
21591;SDS011;10958;50.892;3.992;2023-02-12T04:56:18;15.15;;;11.65;;
21591;SDS011;10958;50.892;3.992;2023-02-12T04:58:43;18.27;;;11.65;;
21591;SDS011;10958;50.892;3.992;2023-02-12T05:01:09;17.25;;;12.68;;
21591;SDS011;10958;50.892;3.992;2023-02-12T05:03:35;16.77;;;12.60;;
21591;SDS011;10958;50.892;3.992;2023-02-12T05:06:05;15.55;;;12.93;;
21591;SDS011;10958;50.892;3.992;2023-02-12T05:08:32;18.58;;;12.82;;
21591;SDS011;10958;50.892;3.992;2023-02-12T05:11:02;16.90;;;12.65;;
21591;SDS011;10958;50.892;3.992;2023-02-12T05:13:30;16.60;;;13.27;;
21591;SDS011;10958;50.892;3.992;2023-02-12T05:15:55;16.33;;;12.90;;
21591;SDS011;10958;50.892;3.992;2023-02-12T05:18:21;16.83;;;12.75;;
21591;SDS011;10958;50.892;3.992;2023-02-12T05:20:54;18.55;;;13.82;;
21591;SDS011;10958;50.892;3.992;2023-02-12T05:23:30;20.85;;;13.57;;
21591;SDS011;10958;50.892;3.992;2023-02-12T05:25:59;16.60;;;13.20;;
21591;SDS011;10958;50.892;3.992;2023-02-12T05:28:28;18.60;;;13.60;;
21591;SDS011;10958;50.892;3.992;2023-02-12T05:31:00;19.25;;;14.13;;
21591;SDS011;10958;50.892;3.992;2023-02-12T05:33:28;16.10;;;13.13;;
21591;SDS011;10958;50.892;3.992;2023-02-12T05:35:53;18.10;;;13.95;;
21591;SDS011;10958;50.892;3.992;2023-02-12T05:38:19;16.30;;;13.20;;
21591;SDS011;10958;50.892;3.992;2023-02-12T05:40:45;18.60;;;14.27;;
21591;SDS011;10958;50.892;3.992;2023-02-12T05:43:16;20.60;;;14.77;;
21591;SDS011;10958;50.892;3.992;2023-02-12T05:45:41;28.45;;;19.08;;
21591;SDS011;10958;50.892;3.992;2023-02-12T05:48:10;33.30;;;21.00;;
21591;SDS011;10958;50.892;3.992;2023-02-12T05:50:36;22.55;;;16.65;;
21591;SDS011;10958;50.892;3.992;2023-02-12T05:55:31;22.38;;;16.02;;
21591;SDS011;10958;50.892;3.992;2023-02-12T05:57:56;26.98;;;18.10;;
21591;SDS011;10958;50.892;3.992;2023-02-12T06:00:22;21.65;;;15.00;;
21591;SDS011;10958;50.892;3.992;2023-02-12T06:02:48;24.13;;;17.10;;
21591;SDS011;10958;50.892;3.992;2023-02-12T06:05:13;26.00;;;17.98;;
21591;SDS011;10958;50.892;3.992;2023-02-12T06:07:39;18.17;;;13.15;;
21591;SDS011;10958;50.892;3.992;2023-02-12T06:10:05;18.23;;;15.23;;
21591;SDS011;10958;50.892;3.992;2023-02-12T06:12:31;17.80;;;13.68;;
21591;SDS011;10958;50.892;3.992;2023-02-12T06:14:57;19.67;;;14.57;;
21591;SDS011;10958;50.892;3.992;2023-02-12T06:17:23;11.30;;;9.80;;
21591;SDS011;10958;50.892;3.992;2023-02-12T06:19:48;15.43;;;12.38;;
21591;SDS011;10958;50.892;3.992;2023-02-12T06:22:15;14.68;;;11.75;;
21591;SDS011;10958;50.892;3.992;2023-02-12T06:24:40;12.13;;;10.43;;
21591;SDS011;10958;50.892;3.992;2023-02-12T06:27:06;14.20;;;12.13;;
21591;SDS011;10958;50.892;3.992;2023-02-12T06:29:34;12.35;;;10.80;;
21591;SDS011;10958;50.892;3.992;2023-02-12T06:32:00;10.50;;;9.38;;
21591;SDS011;10958;50.892;3.992;2023-02-12T06:34:25;18.20;;;13.02;;
21591;SDS011;10958;50.892;3.992;2023-02-12T06:36:53;14.05;;;10.65;;
21591;SDS011;10958;50.892;3.992;2023-02-12T06:39:19;15.23;;;12.65;;
21591;SDS011;10958;50.892;3.992;2023-02-12T06:41:45;21.25;;;15.98;;
21591;SDS011;10958;50.892;3.992;2023-02-12T06:44:11;18.50;;;15.32;;
21591;SDS011;10958;50.892;3.992;2023-02-12T06:46:37;16.00;;;13.65;;
21591;SDS011;10958;50.892;3.992;2023-02-12T06:49:03;22.83;;;18.27;;
21591;SDS011;10958;50.892;3.992;2023-02-12T06:51:29;25.52;;;19.10;;
21591;SDS011;10958;50.892;3.992;2023-02-12T06:53:57;27.75;;;19.95;;
21591;SDS011;10958;50.892;3.992;2023-02-12T06:56:24;35.80;;;25.02;;
21591;SDS011;10958;50.892;3.992;2023-02-12T06:58:54;29.73;;;21.35;;
21591;SDS011;10958;50.892;3.992;2023-02-12T07:01:25;33.75;;;22.55;;
21591;SDS011;10958;50.892;3.992;2023-02-12T07:03:54;21.75;;;17.35;;
21591;SDS011;10958;50.892;3.992;2023-02-12T07:06:24;16.90;;;14.23;;
21591;SDS011;10958;50.892;3.992;2023-02-12T07:08:51;13.00;;;11.18;;
21591;SDS011;10958;50.892;3.992;2023-02-12T07:11:22;17.42;;;15.30;;
21591;SDS011;10958;50.892;3.992;2023-02-12T07:13:51;20.90;;;16.45;;
21591;SDS011;10958;50.892;3.992;2023-02-12T07:16:18;23.55;;;17.98;;
21591;SDS011;10958;50.892;3.992;2023-02-12T07:18:44;19.35;;;15.00;;
21591;SDS011;10958;50.892;3.992;2023-02-12T07:21:11;20.38;;;14.00;;
21591;SDS011;10958;50.892;3.992;2023-02-12T07:23:38;24.92;;;19.52;;
21591;SDS011;10958;50.892;3.992;2023-02-12T07:26:07;23.47;;;18.63;;
21591;SDS011;10958;50.892;3.992;2023-02-12T07:28:36;24.77;;;17.77;;
21591;SDS011;10958;50.892;3.992;2023-02-12T07:31:13;23.83;;;18.60;;
21591;SDS011;10958;50.892;3.992;2023-02-12T07:33:44;22.55;;;17.75;;
21591;SDS011;10958;50.892;3.992;2023-02-12T07:36:12;29.13;;;20.63;;
21591;SDS011;10958;50.892;3.992;2023-02-12T07:38:44;27.73;;;21.05;;
21591;SDS011;10958;50.892;3.992;2023-02-12T07:41:14;28.85;;;21.45;;
21591;SDS011;10958;50.892;3.992;2023-02-12T07:43:41;27.25;;;20.27;;
21591;SDS011;10958;50.892;3.992;2023-02-12T07:46:10;29.10;;;21.08;;
21591;SDS011;10958;50.892;3.992;2023-02-12T07:48:39;25.85;;;20.67;;
21591;SDS011;10958;50.892;3.992;2023-02-12T07:51:09;22.00;;;16.35;;
21591;SDS011;10958;50.892;3.992;2023-02-12T07:56:03;30.40;;;21.30;;
21591;SDS011;10958;50.892;3.992;2023-02-12T07:58:34;29.30;;;21.73;;
21591;SDS011;10958;50.892;3.992;2023-02-12T08:01:09;31.45;;;22.67;;
21591;SDS011;10958;50.892;3.992;2023-02-12T08:03:40;30.08;;;20.98;;
21591;SDS011;10958;50.892;3.992;2023-02-12T08:06:13;33.10;;;23.63;;
21591;SDS011;10958;50.892;3.992;2023-02-12T08:08:40;31.20;;;23.80;;
21591;SDS011;10958;50.892;3.992;2023-02-12T08:11:07;31.10;;;24.05;;
21591;SDS011;10958;50.892;3.992;2023-02-12T08:13:34;32.17;;;24.15;;
21591;SDS011;10958;50.892;3.992;2023-02-12T08:16:02;33.63;;;24.85;;
21591;SDS011;10958;50.892;3.992;2023-02-12T08:18:30;32.25;;;24.25;;
21591;SDS011;10958;50.892;3.992;2023-02-12T08:21:00;36.50;;;24.17;;
21591;SDS011;10958;50.892;3.992;2023-02-12T08:23:30;31.30;;;22.80;;
21591;SDS011;10958;50.892;3.992;2023-02-12T08:26:04;32.42;;;23.85;;
21591;SDS011;10958;50.892;3.992;2023-02-12T08:28:41;32.10;;;22.73;;
21591;SDS011;10958;50.892;3.992;2023-02-12T08:31:19;31.75;;;22.63;;
21591;SDS011;10958;50.892;3.992;2023-02-12T08:33:49;28.20;;;20.73;;
21591;SDS011;10958;50.892;3.992;2023-02-12T08:36:20;25.73;;;19.85;;
21591;SDS011;10958;50.892;3.992;2023-02-12T08:38:47;26.08;;;18.60;;
21591;SDS011;10958;50.892;3.992;2023-02-12T08:41:22;29.52;;;20.73;;
21591;SDS011;10958;50.892;3.992;2023-02-12T08:43:53;31.58;;;21.35;;
21591;SDS011;10958;50.892;3.992;2023-02-12T08:46:27;33.53;;;24.52;;
21591;SDS011;10958;50.892;3.992;2023-02-12T08:48:57;34.25;;;24.45;;
21591;SDS011;10958;50.892;3.992;2023-02-12T08:51:25;32.65;;;24.23;;
21591;SDS011;10958;50.892;3.992;2023-02-12T08:53:56;35.50;;;25.42;;
21591;SDS011;10958;50.892;3.992;2023-02-12T08:56:24;41.77;;;27.67;;
21591;SDS011;10958;50.892;3.992;2023-02-12T08:58:52;35.90;;;25.97;;
21591;SDS011;10958;50.892;3.992;2023-02-12T09:01:21;36.95;;;25.70;;
21591;SDS011;10958;50.892;3.992;2023-02-12T09:03:49;33.75;;;23.25;;
21591;SDS011;10958;50.892;3.992;2023-02-12T09:06:16;28.83;;;22.45;;
21591;SDS011;10958;50.892;3.992;2023-02-12T09:08:46;28.25;;;22.35;;
21591;SDS011;10958;50.892;3.992;2023-02-12T09:11:14;37.30;;;25.15;;
21591;SDS011;10958;50.892;3.992;2023-02-12T09:13:42;33.00;;;24.70;;
21591;SDS011;10958;50.892;3.992;2023-02-12T09:16:10;33.67;;;24.30;;
21591;SDS011;10958;50.892;3.992;2023-02-12T09:18:37;32.33;;;23.88;;
21591;SDS011;10958;50.892;3.992;2023-02-12T09:21:04;33.08;;;24.20;;
21591;SDS011;10958;50.892;3.992;2023-02-12T09:23:31;37.07;;;24.27;;
21591;SDS011;10958;50.892;3.992;2023-02-12T09:25:58;31.75;;;23.15;;
21591;SDS011;10958;50.892;3.992;2023-02-12T09:28:23;32.75;;;22.85;;
21591;SDS011;10958;50.892;3.992;2023-02-12T09:30:49;33.65;;;23.83;;
21591;SDS011;10958;50.892;3.992;2023-02-12T09:33:15;37.35;;;24.33;;
21591;SDS011;10958;50.892;3.992;2023-02-12T09:35:41;31.80;;;22.48;;
21591;SDS011;10958;50.892;3.992;2023-02-12T09:38:07;35.30;;;22.00;;
21591;SDS011;10958;50.892;3.992;2023-02-12T09:40:45;28.52;;;21.63;;
21591;SDS011;10958;50.892;3.992;2023-02-12T09:43:44;35.15;;;23.70;;
21591;SDS011;10958;50.892;3.992;2023-02-12T09:46:39;28.38;;;21.23;;
21591;SDS011;10958;50.892;3.992;2023-02-12T09:49:08;30.33;;;22.00;;
21591;SDS011;10958;50.892;3.992;2023-02-12T09:51:38;32.03;;;23.33;;
21591;SDS011;10958;50.892;3.992;2023-02-12T09:54:15;32.38;;;23.70;;
21591;SDS011;10958;50.892;3.992;2023-02-12T09:56:44;31.52;;;24.02;;
21591;SDS011;10958;50.892;3.992;2023-02-12T09:59:18;30.38;;;21.48;;
21591;SDS011;10958;50.892;3.992;2023-02-12T10:02:18;23.33;;;18.60;;
21591;SDS011;10958;50.892;3.992;2023-02-12T10:04:49;25.08;;;19.42;;
21591;SDS011;10958;50.892;3.992;2023-02-12T10:07:24;29.40;;;21.13;;
21591;SDS011;10958;50.892;3.992;2023-02-12T10:10:30;34.10;;;21.67;;
21591;SDS011;10958;50.892;3.992;2023-02-12T10:15:54;30.90;;;21.63;;
21591;SDS011;10958;50.892;3.992;2023-02-12T10:28:50;25.50;;;17.50;;
21591;SDS011;10958;50.892;3.992;2023-02-12T10:31:36;25.67;;;18.10;;
21591;SDS011;10958;50.892;3.992;2023-02-12T10:34:15;24.45;;;17.08;;
21591;SDS011;10958;50.892;3.992;2023-02-12T10:39:17;21.17;;;15.02;;
21591;SDS011;10958;50.892;3.992;2023-02-12T10:42:01;25.63;;;16.65;;
21591;SDS011;10958;50.892;3.992;2023-02-12T10:44:37;23.80;;;16.70;;
21591;SDS011;10958;50.892;3.992;2023-02-12T10:47:02;25.42;;;18.85;;
21591;SDS011;10958;50.892;3.992;2023-02-12T10:49:30;23.17;;;15.55;;
21591;SDS011;10958;50.892;3.992;2023-02-12T10:52:17;19.52;;;14.32;;
21591;SDS011;10958;50.892;3.992;2023-02-12T10:57:55;21.17;;;15.27;;
21591;SDS011;10958;50.892;3.992;2023-02-12T11:03:49;19.27;;;12.38;;
21591;SDS011;10958;50.892;3.992;2023-02-12T11:06:18;13.43;;;10.38;;
21591;SDS011;10958;50.892;3.992;2023-02-12T11:08:55;20.40;;;11.02;;
21591;SDS011;10958;50.892;3.992;2023-02-12T11:11:28;19.98;;;13.95;;
21591;SDS011;10958;50.892;3.992;2023-02-12T11:14:17;18.52;;;12.93;;
21591;SDS011;10958;50.892;3.992;2023-02-12T11:16:51;19.23;;;13.85;;
21591;SDS011;10958;50.892;3.992;2023-02-12T11:19:23;23.38;;;14.98;;
21591;SDS011;10958;50.892;3.992;2023-02-12T11:21:50;21.80;;;14.07;;
21591;SDS011;10958;50.892;3.992;2023-02-12T11:24:29;23.17;;;13.85;;
21591;SDS011;10958;50.892;3.992;2023-02-12T11:27:10;19.27;;;13.90;;
21591;SDS011;10958;50.892;3.992;2023-02-12T11:29:37;20.10;;;13.50;;
21591;SDS011;10958;50.892;3.992;2023-02-12T11:32:07;19.58;;;14.02;;
21591;SDS011;10958;50.892;3.992;2023-02-12T11:34:39;19.35;;;13.15;;
21591;SDS011;10958;50.892;3.992;2023-02-12T11:37:06;23.27;;;14.15;;
21591;SDS011;10958;50.892;3.992;2023-02-12T11:39:47;19.55;;;14.25;;
21591;SDS011;10958;50.892;3.992;2023-02-12T11:42:18;21.27;;;14.68;;
21591;SDS011;10958;50.892;3.992;2023-02-12T11:44:51;21.88;;;14.90;;
21591;SDS011;10958;50.892;3.992;2023-02-12T11:47:27;20.58;;;13.27;;
21591;SDS011;10958;50.892;3.992;2023-02-12T11:52:34;19.58;;;13.63;;
21591;SDS011;10958;50.892;3.992;2023-02-12T11:55:06;21.65;;;14.25;;
21591;SDS011;10958;50.892;3.992;2023-02-12T11:58:20;21.25;;;13.73;;
21591;SDS011;10958;50.892;3.992;2023-02-12T12:00:53;21.70;;;13.93;;
21591;SDS011;10958;50.892;3.992;2023-02-12T12:06:28;21.90;;;14.23;;
21591;SDS011;10958;50.892;3.992;2023-02-12T12:14:38;25.27;;;14.63;;
21591;SDS011;10958;50.892;3.992;2023-02-12T12:20:38;24.98;;;15.48;;
21591;SDS011;10958;50.892;3.992;2023-02-12T12:23:35;24.48;;;15.07;;
21591;SDS011;10958;50.892;3.992;2023-02-12T12:26:43;23.58;;;15.52;;
21591;SDS011;10958;50.892;3.992;2023-02-12T12:29:02;25.17;;;15.13;;
21591;SDS011;10958;50.892;3.992;2023-02-12T12:31:36;25.50;;;16.02;;
21591;SDS011;10958;50.892;3.992;2023-02-12T12:36:50;25.92;;;16.20;;
21591;SDS011;10958;50.892;3.992;2023-02-12T12:42:19;24.08;;;15.55;;
21591;SDS011;10958;50.892;3.992;2023-02-12T13:16:08;23.08;;;15.52;;
21591;SDS011;10958;50.892;3.992;2023-02-12T13:18:48;23.42;;;14.48;;
21591;SDS011;10958;50.892;3.992;2023-02-12T13:24:40;24.35;;;15.02;;
21591;SDS011;10958;50.892;3.992;2023-02-12T13:27:15;22.65;;;13.27;;
21591;SDS011;10958;50.892;3.992;2023-02-12T13:29:44;24.73;;;13.80;;
21591;SDS011;10958;50.892;3.992;2023-02-12T13:32:18;21.13;;;13.93;;
21591;SDS011;10958;50.892;3.992;2023-02-12T13:34:54;26.40;;;14.60;;
21591;SDS011;10958;50.892;3.992;2023-02-12T13:37:37;23.00;;;14.48;;
21591;SDS011;10958;50.892;3.992;2023-02-12T13:40:16;21.60;;;14.13;;
21591;SDS011;10958;50.892;3.992;2023-02-12T13:45:39;23.90;;;13.73;;
21591;SDS011;10958;50.892;3.992;2023-02-12T13:51:46;20.27;;;13.00;;
21591;SDS011;10958;50.892;3.992;2023-02-12T13:56:54;24.50;;;15.13;;
21591;SDS011;10958;50.892;3.992;2023-02-12T14:02:04;24.65;;;16.10;;
21591;SDS011;10958;50.892;3.992;2023-02-12T14:07:24;25.05;;;14.80;;
21591;SDS011;10958;50.892;3.992;2023-02-12T14:13:09;25.63;;;15.77;;
21591;SDS011;10958;50.892;3.992;2023-02-12T14:15:42;26.10;;;16.25;;
21591;SDS011;10958;50.892;3.992;2023-02-12T14:23:36;24.58;;;15.30;;
21591;SDS011;10958;50.892;3.992;2023-02-12T14:26:14;25.08;;;15.48;;
21591;SDS011;10958;50.892;3.992;2023-02-12T14:28:46;29.65;;;16.10;;
21591;SDS011;10958;50.892;3.992;2023-02-12T14:31:29;25.98;;;15.50;;
21591;SDS011;10958;50.892;3.992;2023-02-12T14:41:50;26.27;;;15.43;;
21591;SDS011;10958;50.892;3.992;2023-02-12T14:44:54;23.60;;;14.60;;
21591;SDS011;10958;50.892;3.992;2023-02-12T14:49:56;34.03;;;13.43;;
21591;SDS011;10958;50.892;3.992;2023-02-12T14:52:38;21.00;;;12.80;;
21591;SDS011;10958;50.892;3.992;2023-02-12T14:55:21;20.50;;;13.15;;
21591;SDS011;10958;50.892;3.992;2023-02-12T14:57:58;21.10;;;12.68;;
21591;SDS011;10958;50.892;3.992;2023-02-12T15:00:27;19.73;;;12.00;;
21591;SDS011;10958;50.892;3.992;2023-02-12T15:08:32;19.50;;;12.30;;
21591;SDS011;10958;50.892;3.992;2023-02-12T15:13:52;20.13;;;12.88;;
21591;SDS011;10958;50.892;3.992;2023-02-12T15:16:32;20.70;;;12.82;;
21591;SDS011;10958;50.892;3.992;2023-02-12T15:21:54;21.85;;;13.23;;
21591;SDS011;10958;50.892;3.992;2023-02-12T15:24:23;23.50;;;12.13;;
21591;SDS011;10958;50.892;3.992;2023-02-12T15:26:54;20.25;;;13.02;;
21591;SDS011;10958;50.892;3.992;2023-02-12T15:32:08;20.05;;;13.13;;
21591;SDS011;10958;50.892;3.992;2023-02-12T15:34:43;23.90;;;13.68;;
21591;SDS011;10958;50.892;3.992;2023-02-12T15:37:25;22.17;;;14.50;;
21591;SDS011;10958;50.892;3.992;2023-02-12T15:39:55;25.23;;;14.75;;
21591;SDS011;10958;50.892;3.992;2023-02-12T15:44:59;25.25;;;13.93;;
21591;SDS011;10958;50.892;3.992;2023-02-12T15:47:31;25.95;;;14.35;;
21591;SDS011;10958;50.892;3.992;2023-02-12T15:49:58;25.30;;;15.18;;
21591;SDS011;10958;50.892;3.992;2023-02-12T15:52:29;25.87;;;15.00;;
21591;SDS011;10958;50.892;3.992;2023-02-12T15:54:59;22.70;;;14.57;;
21591;SDS011;10958;50.892;3.992;2023-02-12T15:57:29;26.55;;;15.13;;
21591;SDS011;10958;50.892;3.992;2023-02-12T15:59:58;22.30;;;13.95;;
21591;SDS011;10958;50.892;3.992;2023-02-12T16:02:32;26.27;;;15.60;;
21591;SDS011;10958;50.892;3.992;2023-02-12T16:04:59;23.15;;;14.00;;
21591;SDS011;10958;50.892;3.992;2023-02-12T16:07:28;26.85;;;15.55;;
21591;SDS011;10958;50.892;3.992;2023-02-12T16:09:59;26.13;;;15.35;;
21591;SDS011;10958;50.892;3.992;2023-02-12T16:12:28;26.55;;;15.77;;
21591;SDS011;10958;50.892;3.992;2023-02-12T16:14:56;25.80;;;15.90;;
21591;SDS011;10958;50.892;3.992;2023-02-12T16:22:25;26.48;;;14.93;;
21591;SDS011;10958;50.892;3.992;2023-02-12T16:25:00;27.77;;;16.55;;
21591;SDS011;10958;50.892;3.992;2023-02-12T16:27:33;26.90;;;16.67;;
21591;SDS011;10958;50.892;3.992;2023-02-12T16:30:01;25.50;;;15.73;;
21591;SDS011;10958;50.892;3.992;2023-02-12T16:32:34;25.75;;;16.58;;
21591;SDS011;10958;50.892;3.992;2023-02-12T16:42:37;26.83;;;16.75;;
21591;SDS011;10958;50.892;3.992;2023-02-12T16:50:38;35.75;;;18.48;;
21591;SDS011;10958;50.892;3.992;2023-02-12T16:55:59;32.92;;;18.58;;
21591;SDS011;10958;50.892;3.992;2023-02-12T16:58:27;32.15;;;18.58;;
21591;SDS011;10958;50.892;3.992;2023-02-12T17:00:53;35.88;;;19.30;;
21591;SDS011;10958;50.892;3.992;2023-02-12T17:03:21;32.45;;;19.58;;
21591;SDS011;10958;50.892;3.992;2023-02-12T17:05:48;35.42;;;20.48;;
21591;SDS011;10958;50.892;3.992;2023-02-12T17:08:21;33.20;;;19.98;;
21591;SDS011;10958;50.892;3.992;2023-02-12T17:10:48;36.85;;;22.08;;
21591;SDS011;10958;50.892;3.992;2023-02-12T17:13:14;34.70;;;20.90;;
21591;SDS011;10958;50.892;3.992;2023-02-12T17:15:43;35.17;;;20.20;;
21591;SDS011;10958;50.892;3.992;2023-02-12T17:18:12;32.60;;;20.08;;
21591;SDS011;10958;50.892;3.992;2023-02-12T17:20:39;38.22;;;20.48;;
21591;SDS011;10958;50.892;3.992;2023-02-12T17:23:05;33.05;;;20.00;;
21591;SDS011;10958;50.892;3.992;2023-02-12T17:25:31;37.28;;;21.35;;
21591;SDS011;10958;50.892;3.992;2023-02-12T17:27:58;39.05;;;20.92;;
21591;SDS011;10958;50.892;3.992;2023-02-12T17:30:23;32.85;;;19.30;;
21591;SDS011;10958;50.892;3.992;2023-02-12T17:32:50;36.17;;;18.92;;
21591;SDS011;10958;50.892;3.992;2023-02-12T17:35:16;32.88;;;19.50;;
21591;SDS011;10958;50.892;3.992;2023-02-12T17:37:42;34.65;;;19.73;;
21591;SDS011;10958;50.892;3.992;2023-02-12T17:40:08;33.90;;;19.02;;
21591;SDS011;10958;50.892;3.992;2023-02-12T17:42:35;31.20;;;19.15;;
21591;SDS011;10958;50.892;3.992;2023-02-12T17:45:04;31.27;;;18.90;;
21591;SDS011;10958;50.892;3.992;2023-02-12T17:49:58;33.75;;;18.65;;
21591;SDS011;10958;50.892;3.992;2023-02-12T17:52:26;33.38;;;20.00;;
21591;SDS011;10958;50.892;3.992;2023-02-12T17:54:52;35.05;;;19.38;;
21591;SDS011;10958;50.892;3.992;2023-02-12T17:57:20;35.72;;;18.98;;
21591;SDS011;10958;50.892;3.992;2023-02-12T17:59:45;34.65;;;19.80;;